Time;durP1;ratioP1;P1;durP2;ratioP2;P2;SDS_P1;SDS_P2;PMS_P1;PMS_P2;Temp;Humidity;BMP_temperature;BMP_pressure;BME280_temperature;BME280_humidity;BME280_pressure;Samples;Min_cycle;Max_cycle;Signal;HPM_P1;HPM_P2
2021/06/06 00:00:19;;;;;;;7.68;6.78;;;;;;;12.16;88.20;96389.00;4961070;28;20037;-84
2021/06/06 00:02:44;;;;;;;9.07;6.65;;;;;;;11.74;88.09;96332.00;4961167;28;20031;-83
2021/06/06 00:05:12;;;;;;;7.97;6.38;;;;;;;11.77;87.92;96352.81;4978051;28;20031;-83
2021/06/06 00:07:37;;;;;;;6.80;6.20;;;;;;;11.88;88.00;96372.13;4961080;28;20030;-83
2021/06/06 00:10:05;;;;;;;7.15;5.97;;;;;;;12.04;88.99;96393.47;4961316;28;20050;-84
2021/06/06 00:12:32;;;;;;;7.88;6.15;;;;;;;11.54;87.70;96324.44;4961091;28;20031;-83
2021/06/06 00:14:58;;;;;;;6.82;6.18;;;;;;;11.59;88.71;96342.09;4960866;28;20302;-83
2021/06/06 00:17:23;;;;;;;8.85;7.18;;;;;;;11.72;89.39;96358.94;4978277;28;20026;-83
2021/06/06 00:19:49;;;;;;;9.10;7.70;;;;;;;11.52;90.07;96318.72;4961015;28;20034;-83
2021/06/06 00:22:15;;;;;;;10.55;7.78;;;;;;;11.63;89.64;96329.81;4961034;28;20027;-84
2021/06/06 00:24:40;;;;;;;8.93;7.47;;;;;;;11.87;90.53;96370.59;4977490;28;20026;-84
2021/06/06 00:27:07;;;;;;;11.32;7.45;;;;;;;11.73;89.22;96350.28;4961123;28;20038;-84
2021/06/06 00:29:32;;;;;;;9.65;7.32;;;;;;;11.57;89.44;96328.22;4960939;28;20034;-84
2021/06/06 00:31:58;;;;;;;10.30;6.85;;;;;;;11.63;89.97;96324.38;4978666;28;20367;-84
2021/06/06 00:34:24;;;;;;;11.52;6.97;;;;;;;11.59;89.91;96307.47;4960843;28;20023;-84
2021/06/06 00:36:50;;;;;;;15.40;6.97;;;;;;;12.06;89.79;96379.41;4960879;28;20045;-84
2021/06/06 00:39:16;;;;;;;8.95;6.22;;;;;;;12.08;89.11;96379.66;4960898;28;20423;-84
2021/06/06 00:41:45;;;;;;;6.90;6.30;;;;;;;12.01;89.17;96353.56;4977399;28;20031;-84
2021/06/06 00:44:11;;;;;;;48.05;8.63;;;;;;;11.93;89.59;96338.06;4960898;28;20023;-84
2021/06/06 00:46:37;;;;;;;13.48;6.53;;;;;;;11.96;89.42;96328.97;4960968;28;20031;-84
2021/06/06 00:49:05;;;;;;;6.55;5.93;;;;;;;11.79;87.80;96304.91;4977802;28;20054;-83
2021/06/06 00:51:35;;;;;;;7.47;6.05;;;;;;;12.23;88.28;96377.72;4960815;28;20133;-84
2021/06/06 00:54:09;;;;;;;7.20;6.50;;;;;;;12.02;87.97;96338.75;4977713;28;20030;-84
2021/06/06 00:56:35;;;;;;;9.40;6.80;;;;;;;12.49;87.59;96401.69;4977833;28;20042;-84
2021/06/06 00:59:02;;;;;;;12.00;8.10;;;;;;;12.14;89.62;96339.69;4960719;28;20026;-84
2021/06/06 01:01:28;;;;;;;7.53;6.78;;;;;;;12.18;88.02;96339.50;4960717;28;20425;-84
2021/06/06 01:03:56;;;;;;;9.10;6.45;;;;;;;12.51;88.17;96402.72;4960753;28;20054;-84
2021/06/06 01:06:36;;;;;;;10.18;6.97;;;;;;;12.52;87.15;96398.81;4960564;28;20031;-84
2021/06/06 01:09:04;;;;;;;7.30;6.60;;;;;;;12.43;88.06;96390.72;4960328;28;20050;-84
2021/06/06 01:11:33;;;;;;;7.72;6.93;;;;;;;12.42;88.53;96393.91;4961206;28;20419;-84
2021/06/06 01:14:04;;;;;;;7.68;6.78;;;;;;;12.25;88.93;96360.91;4960497;28;20026;-84
2021/06/06 01:16:55;;;;;;;8.23;6.63;;;;;;;12.49;87.44;96401.69;4960307;28;20023;-84
2021/06/06 01:19:40;;;;;;;7.93;6.80;;;;;;;12.32;87.62;96366.75;4977750;28;20038;-84
2021/06/06 01:22:19;;;;;;;8.05;6.78;;;;;;;12.58;88.57;96401.63;4977702;28;20031;-84
2021/06/06 01:24:50;;;;;;;8.05;6.82;;;;;;;12.49;88.31;96415.31;4960348;28;20031;-83
2021/06/06 01:27:20;;;;;;;8.10;6.75;;;;;;;12.49;89.37;96405.16;4960482;28;20037;-84
2021/06/06 01:30:09;;;;;;;9.63;6.43;;;;;;;12.56;89.22;96404.78;4960375;28;20085;-84
2021/06/06 01:32:49;;;;;;;6.78;5.93;;;;;;;12.57;87.58;96406.31;4960348;28;20042;-84
2021/06/06 01:35:25;;;;;;;6.93;6.25;;;;;;;12.58;88.76;96401.63;4961391;28;20031;-84
2021/06/06 01:37:59;;;;;;;7.47;6.78;;;;;;;12.37;87.50;96370.81;4963792;28;20457;-83
2021/06/06 01:40:29;;;;;;;7.05;6.22;;;;;;;12.64;87.89;96396.25;4981581;28;20081;-84
2021/06/06 01:43:09;;;;;;;6.25;5.65;;;;;;;12.50;87.00;96381.41;4963708;28;20343;-84
2021/06/06 01:45:40;;;;;;;6.28;5.68;;;;;;;12.21;86.27;96339.34;4980878;28;20057;-84
2021/06/06 01:48:10;;;;;;;6.68;6.07;;;;;;;12.53;86.66;96386.69;4980816;28;20124;-84
2021/06/06 01:50:53;;;;;;;6.63;6.03;;;;;;;12.38;87.30;96364.13;4980786;28;20054;-84
2021/06/06 01:53:21;;;;;;;6.97;6.28;;;;;;;12.64;87.23;96393.53;4963511;28;20305;-83
2021/06/06 01:55:55;;;;;;;8.15;6.35;;;;;;;12.63;87.45;96397.50;4980271;28;20030;-83
2021/06/06 01:58:22;;;;;;;6.40;5.80;;;;;;;12.58;86.34;96394.19;4980700;28;20113;-83
2021/06/06 02:00:50;;;;;;;6.88;6.18;;;;;;;12.59;86.32;96386.78;4963036;28;20031;-83
2021/06/06 02:03:16;;;;;;;12.02;10.00;;;;;;;12.30;86.70;96352.09;4963225;28;20482;-83
2021/06/06 02:05:43;;;;;;;15.23;11.27;;;;;;;12.27;87.42;96333.97;4963439;28;20138;-84
2021/06/06 02:08:12;;;;;;;7.80;6.53;;;;;;;12.15;84.89;96326.84;4963285;28;20323;-84
2021/06/06 02:11:01;;;;;;;7.45;6.10;;;;;;;12.68;85.87;96399.56;4963447;28;20177;-84
2021/06/06 02:13:51;;;;;;;7.85;5.95;;;;;;;12.17;86.45;96333.31;4963229;28;20030;-84
2021/06/06 02:16:25;;;;;;;6.13;5.45;;;;;;;12.66;87.74;96397.28;4962824;28;20411;-83
2021/06/06 02:18:50;;;;;;;7.32;5.97;;;;;;;12.63;87.12;96406.41;4963222;28;20054;-84
2021/06/06 02:21:17;;;;;;;6.43;5.63;;;;;;;12.59;86.43;96403.88;4962767;28;20030;-83
2021/06/06 02:23:45;;;;;;;6.68;6.07;;;;;;;12.62;86.53;96399.44;4980448;28;20070;-84
2021/06/06 02:26:53;;;;;;;6.75;6.05;;;;;;;12.63;85.60;96403.69;4962966;28;20343;-84
2021/06/06 02:29:47;;;;;;;97.90;11.73;;;;;;;12.60;87.27;96399.16;4962989;28;20361;-84
2021/06/06 02:32:39;;;;;;;10.27;7.18;;;;;;;12.58;86.46;96402.38;4962227;28;20133;-83
2021/06/06 02:35:21;;;;;;;10.43;7.55;;;;;;;12.30;86.15;96360.25;4980221;28;20027;-83
2021/06/06 02:38:17;;;;;;;12.50;8.82;;;;;;;12.61;88.23;96406.13;4956007;28;20035;-83
2021/06/06 02:40:50;;;;;;;21.50;12.23;;;;;;;12.46;87.78;96376.13;4962744;28;20147;-83
2021/06/06 02:43:21;;;;;;;26.52;16.35;;;;;;;12.69;88.31;96409.22;4962522;28;20411;-83
2021/06/06 02:45:50;;;;;;;20.40;12.82;;;;;;;12.31;87.61;96346.19;4979801;28;20037;-83
2021/06/06 02:48:31;;;;;;;23.60;21.25;;;;;;;12.67;86.92;96400.75;4961755;28;20035;-83
2021/06/06 02:51:00;;;;;;;25.45;22.75;;;;;;;12.44;87.40;96377.84;4962661;28;20109;-83
2021/06/06 02:53:33;;;;;;;21.33;18.25;;;;;;;12.48;86.99;96384.59;4962246;28;20022;-83
2021/06/06 02:56:10;;;;;;;15.82;13.70;;;;;;;12.35;87.39;96358.84;4979594;28;20042;-83
2021/06/06 02:58:42;;;;;;;13.80;9.45;;;;;;;12.38;86.25;96374.28;4962115;28;20037;-83
2021/06/06 03:01:17;;;;;;;10.00;7.95;;;;;;;12.36;87.38;96363.84;4962426;28;20115;-84
2021/06/06 03:03:44;;;;;;;10.88;8.05;;;;;;;12.11;87.04;96337.16;4962184;28;20474;-83
2021/06/06 03:06:19;;;;;;;9.82;7.40;;;;;;;12.18;87.47;96350.41;4962298;28;20387;-83
2021/06/06 03:08:44;;;;;;;8.48;6.78;;;;;;;12.23;86.94;96364.09;4962100;28;20097;-83
2021/06/06 03:11:13;;;;;;;12.18;7.45;;;;;;;12.05;86.77;96337.06;4962098;28;20362;-83
2021/06/06 03:13:45;;;;;;;10.95;7.13;;;;;;;12.37;87.51;96370.06;4962145;28;20022;-83
2021/06/06 03:16:14;;;;;;;12.52;7.10;;;;;;;12.66;87.01;96421.06;4962133;28;20042;-83
2021/06/06 03:18:41;;;;;;;10.30;7.13;;;;;;;12.14;88.22;96347.84;4979412;28;20035;-83
2021/06/06 03:21:10;;;;;;;11.32;7.60;;;;;;;12.62;87.68;96426.69;4979152;28;20106;-84
2021/06/06 03:23:37;;;;;;;11.85;7.60;;;;;;;12.27;88.13;96367.41;4961930;28;20085;-83
2021/06/06 03:26:10;;;;;;;11.20;7.50;;;;;;;12.57;87.93;96406.31;4961870;28;20022;-83
2021/06/06 03:28:39;;;;;;;10.55;8.30;;;;;;;12.44;88.26;96400.38;4962009;28;20117;-83
2021/06/06 03:31:08;;;;;;;10.68;8.50;;;;;;;12.57;88.25;96425.38;4961765;28;20023;-84
2021/06/06 03:33:43;;;;;;;11.95;8.40;;;;;;;12.56;88.96;96425.84;4978824;28;20026;-83
2021/06/06 03:36:10;;;;;;;13.35;8.68;;;;;;;12.10;89.15;96362.88;4962041;28;20146;-83
2021/06/06 03:38:36;;;;;;;15.75;10.07;;;;;;;12.56;90.04;96423.88;4961582;28;20026;-83
2021/06/06 03:41:02;;;;;;;20.10;11.23;;;;;;;12.08;90.87;96349.72;4961630;28;20030;-83
2021/06/06 03:43:28;;;;;;;18.98;11.13;;;;;;;12.29;90.10;96394.16;4961513;28;20031;-83
2021/06/06 03:45:54;;;;;;;19.15;10.25;;;;;;;12.06;89.31;96357.63;4961329;28;20027;-83
2021/06/06 03:48:20;;;;;;;32.88;11.10;;;;;;;12.03;90.20;96348.41;4961496;28;20323;-83
2021/06/06 03:50:51;;;;;;;19.58;10.35;;;;;;;12.48;90.69;96419.28;4978546;28;20026;-83
2021/06/06 03:53:17;;;;;;;15.10;9.75;;;;;;;12.15;90.53;96376.59;4961448;28;20122;-83
2021/06/06 03:55:42;;;;;;;15.55;8.82;;;;;;;11.91;90.51;96345.94;4978682;28;20053;-83
2021/06/06 03:58:08;;;;;;;15.27;9.30;;;;;;;12.46;91.45;96432.59;4961089;28;20419;-83
2021/06/06 04:00:41;;;;;;;19.45;9.77;;;;;;;11.95;91.05;96350.00;4978516;28;20146;-83
2021/06/06 04:03:08;;;;;;;16.40;9.18;;;;;;;12.49;90.78;96426.22;4961323;28;20081;-83
2021/06/06 04:05:34;;;;;;;14.18;9.13;;;;;;;12.50;91.14;96430.44;4978296;28;20022;-83
2021/06/06 04:07:59;;;;;;;12.05;9.45;;;;;;;11.80;90.83;96333.59;4961125;28;20323;-83
2021/06/06 04:10:26;;;;;;;12.68;8.88;;;;;;;12.19;90.40;96388.03;4978247;28;20059;-83
2021/06/06 04:12:51;;;;;;;16.73;9.95;;;;;;;12.14;91.32;96391.41;4961097;28;20035;-83
2021/06/06 04:15:17;;;;;;;14.23;9.75;;;;;;;12.20;91.23;96408.63;4961108;28;20077;-83
2021/06/06 04:17:43;;;;;;;15.13;10.45;;;;;;;12.08;92.14;96385.13;4961319;28;20042;-83
2021/06/06 04:20:10;;;;;;;13.32;9.80;;;;;;;11.95;91.15;96363.59;4960982;28;20363;-83
2021/06/06 04:22:37;;;;;;;17.52;10.10;;;;;;;12.33;91.71;96406.38;4961033;28;20041;-83
2021/06/06 04:25:06;;;;;;;14.27;9.95;;;;;;;12.57;91.57;96438.25;4960984;28;20085;-83
2021/06/06 04:27:31;;;;;;;20.70;10.68;;;;;;;12.29;92.03;96396.88;4978101;28;20031;-83
2021/06/06 04:29:57;;;;;;;15.52;10.23;;;;;;;12.45;91.59;96415.50;4960956;28;20477;-84
2021/06/06 04:32:23;;;;;;;13.60;10.32;;;;;;;12.64;91.90;96442.59;4960911;28;20085;-84
2021/06/06 04:34:49;;;;;;;14.00;10.05;;;;;;;12.20;91.42;96372.47;4960937;28;20022;-84
2021/06/06 04:37:15;;;;;;;14.00;10.25;;;;;;;12.45;91.77;96401.88;4960940;28;20049;-84
2021/06/06 04:39:41;;;;;;;11.00;9.55;;;;;;;12.30;90.66;96369.22;4961209;28;20039;-84
2021/06/06 04:42:09;;;;;;;12.43;9.48;;;;;;;12.57;91.50;96392.69;4960774;28;20033;-84
2021/06/06 04:44:38;;;;;;;13.73;10.60;;;;;;;12.57;92.74;96367.44;4977725;28;20422;-84
2021/06/06 04:47:08;;;;;;;15.73;10.35;;;;;;;12.64;91.51;96371.75;4960794;28;20026;-83
2021/06/06 04:49:34;;;;;;;14.88;10.13;;;;;;;13.07;91.74;96441.81;4960702;28;20411;-84
2021/06/06 04:52:00;;;;;;;15.95;10.65;;;;;;;13.00;90.88;96420.41;4960863;28;20034;-83
2021/06/06 04:54:26;;;;;;;17.08;11.05;;;;;;;12.93;90.36;96415.31;4960700;28;20023;-84
2021/06/06 04:56:51;;;;;;;14.57;10.57;;;;;;;12.72;90.82;96370.13;4960558;28;20077;-85
2021/06/06 04:59:18;;;;;;;13.23;11.25;;;;;;;12.90;90.50;96388.25;4960806;28;20018;-85
2021/06/06 05:01:43;;;;;;;15.48;11.32;;;;;;;12.80;89.71;96369.28;4960720;28;20336;-85
2021/06/06 05:04:09;;;;;;;14.40;10.85;;;;;;;13.08;89.99;96407.88;4960655;28;20019;-85
2021/06/06 05:06:35;;;;;;;14.88;11.05;;;;;;;13.25;89.85;96418.31;4960624;28;20027;-84
2021/06/06 05:09:02;;;;;;;11.88;10.07;;;;;;;13.53;88.34;96459.63;4960422;28;20073;-84
2021/06/06 05:11:28;;;;;;;11.90;10.15;;;;;;;13.15;88.49;96392.34;4963765;28;20030;-85
2021/06/06 05:13:54;;;;;;;11.68;10.05;;;;;;;13.40;87.27;96427.22;4981657;28;20026;-85
2021/06/06 05:16:19;;;;;;;12.88;10.18;;;;;;;13.41;89.13;96422.50;4964496;28;20498;-85
2021/06/06 05:18:45;;;;;;;13.15;10.57;;;;;;;13.43;88.89;96407.16;4981483;28;20531;-85
2021/06/06 05:21:11;;;;;;;13.93;11.02;;;;;;;13.23;87.97;96398.94;4964225;28;20037;-84
2021/06/06 05:23:37;;;;;;;11.65;10.35;;;;;;;13.28;87.38;96411.91;4964170;28;20023;-84
2021/06/06 05:26:04;;;;;;;11.70;10.02;;;;;;;13.69;87.36;96452.88;4964038;28;20122;-85
2021/06/06 05:28:31;;;;;;;12.88;10.15;;;;;;;13.88;87.77;96459.59;4964015;28;20027;-84
2021/06/06 05:30:57;;;;;;;16.38;10.43;;;;;;;13.46;88.47;96389.84;4963841;28;20075;-85
2021/06/06 05:33:23;;;;;;;13.70;11.00;;;;;;;13.88;87.00;96470.53;4981140;28;20355;-85
2021/06/06 05:35:49;;;;;;;11.02;9.93;;;;;;;13.97;85.70;96469.66;4980994;28;20030;-84
2021/06/06 05:38:17;;;;;;;11.80;10.23;;;;;;;13.98;85.96;96476.63;4963777;28;20327;-84
2021/06/06 05:40:43;;;;;;;12.38;10.30;;;;;;;13.64;86.03;96418.88;4963830;28;20331;-84
2021/06/06 05:43:10;;;;;;;14.52;10.18;;;;;;;14.06;85.64;96478.47;4963321;28;20026;-84
2021/06/06 05:45:36;;;;;;;12.40;10.20;;;;;;;14.17;86.43;96486.06;4980611;28;20035;-84
2021/06/06 05:48:04;;;;;;;11.50;10.25;;;;;;;14.16;85.34;96468.13;4963588;28;20033;-84
2021/06/06 05:50:32;;;;;;;12.80;9.88;;;;;;;14.03;83.84;96441.19;4980828;28;20073;-85
2021/06/06 05:52:58;;;;;;;10.85;9.20;;;;;;;14.10;82.87;96446.22;4963556;28;20042;-84
2021/06/06 05:55:23;;;;;;;12.45;8.90;;;;;;;14.26;83.25;96441.44;4963529;28;20022;-84
2021/06/06 05:57:49;;;;;;;10.63;9.30;;;;;;;14.16;84.43;96413.53;4963523;28;20030;-85
2021/06/06 06:00:29;;;;;;;27.08;16.92;;;;;;;14.16;84.43;96413.53;4963435;28;20023;-85
2021/06/06 06:02:54;;;;;;;10.02;8.93;;;;;;;14.16;84.43;96413.53;4963187;28;20031;-85
2021/06/06 06:05:20;;;;;;;9.65;7.65;;;;;;;-145.61;100.00;68426.72;4963165;28;20331;-85
2021/06/06 06:07:45;;;;;;;7.25;6.45;;;;;;;-145.61;100.00;68426.72;4962797;28;20029;-85
2021/06/06 06:10:14;;;;;;;7.45;6.72;;;;;;;-145.61;100.00;68426.72;4963103;28;20057;-85
2021/06/06 06:12:39;;;;;;;8.80;6.45;;;;;;;-145.61;100.00;68426.72;4963173;28;20304;-84
2021/06/06 06:15:07;;;;;;;9.20;7.07;;;;;;;-145.61;100.00;68426.72;4963001;28;20033;-85
2021/06/06 06:17:33;;;;;;;9.13;6.78;;;;;;;-145.61;100.00;68426.72;4963297;28;20301;-84
2021/06/06 06:19:59;;;;;;;8.13;7.13;;;;;;;-145.61;100.00;68426.72;4963025;28;20034;-84
2021/06/06 06:22:25;;;;;;;8.93;6.78;;;;;;;-145.61;100.00;68426.72;4978511;28;20042;-85
2021/06/06 06:24:50;;;;;;;6.70;6.00;;;;;;;-145.61;100.00;68426.72;4962923;28;20074;-84
2021/06/06 06:27:16;;;;;;;7.38;6.38;;;;;;;-145.61;100.00;68426.72;4962897;28;20411;-84
2021/06/06 06:29:41;;;;;;;7.28;6.57;;;;;;;-145.61;100.00;68426.72;4964365;28;20026;-83
2021/06/06 06:32:07;;;;;;;6.85;5.85;;;;;;;-145.61;100.00;68426.72;4979600;28;20066;-84
2021/06/06 06:34:33;;;;;;;5.88;4.97;;;;;;;-145.61;100.00;68426.72;4979933;28;20407;-84
2021/06/06 06:36:59;;;;;;;55.42;39.47;;;;;;;-145.61;100.00;68426.72;4979903;28;20093;-84
2021/06/06 06:39:24;;;;;;;10.85;8.75;;;;;;;-145.61;100.00;68426.72;4962153;28;20050;-84
2021/06/06 06:41:50;;;;;;;7.47;6.78;;;;;;;-145.61;100.00;68426.72;4979982;28;20065;-84
2021/06/06 06:44:16;;;;;;;6.93;6.20;;;;;;;-145.61;100.00;68426.72;4962534;28;20027;-83
2021/06/06 06:46:41;;;;;;;7.88;6.03;;;;;;;-145.61;100.00;68426.72;4962563;28;20037;-83
2021/06/06 06:49:07;;;;;;;8.95;5.70;;;;;;;-145.61;100.00;68426.72;4962399;28;20536;-84
2021/06/06 06:51:33;;;;;;;6.68;5.95;;;;;;;-145.61;100.00;68426.72;4962607;28;20423;-83
2021/06/06 06:53:59;;;;;;;6.07;5.38;;;;;;;-145.61;100.00;68426.72;4962453;28;20304;-85
2021/06/06 06:56:27;;;;;;;7.05;5.70;;;;;;;-145.61;100.00;68426.72;4961708;28;20049;-85
2021/06/06 06:58:53;;;;;;;7.88;5.82;;;;;;;-145.61;100.00;68426.72;4961839;28;20062;-86
2021/06/06 07:01:19;;;;;;;6.05;5.47;;;;;;;-145.61;100.00;68426.72;4979522;28;20027;-85
2021/06/06 07:03:45;;;;;;;7.35;6.05;;;;;;;-145.61;100.00;68426.72;4962275;28;20023;-87
2021/06/06 07:06:13;;;;;;;7.80;5.88;;;;;;;-145.61;100.00;68426.72;4971579;28;20030;-84
2021/06/06 07:08:40;;;;;;;6.38;5.20;;;;;;;-145.61;100.00;68426.72;4961404;28;20081;-83
2021/06/06 07:11:09;;;;;;;5.80;5.28;;;;;;;-145.61;100.00;68426.72;4972018;28;20074;-83
2021/06/06 07:13:35;;;;;;;7.30;5.60;;;;;;;-145.61;100.00;68426.72;4961474;28;20114;-83
2021/06/06 07:16:01;;;;;;;6.63;5.63;;;;;;;-145.61;100.00;68426.72;4961984;28;20418;-84
2021/06/06 07:18:29;;;;;;;9.00;6.93;;;;;;;-145.61;100.00;68426.72;4954758;28;20030;-84
2021/06/06 07:21:04;;;;;;;6.90;5.90;;;;;;;-145.61;100.00;68426.72;4957188;28;20524;-84
2021/06/06 07:23:32;;;;;;;6.38;5.13;;;;;;;-145.61;100.00;68426.72;4950565;28;20117;-84
2021/06/06 07:26:00;;;;;;;5.97;5.47;;;;;;;-145.61;100.00;68426.72;4953763;28;20031;-84
2021/06/06 07:28:28;;;;;;;6.68;5.97;;;;;;;-145.61;100.00;68426.72;4978441;28;20074;-84
2021/06/06 07:30:57;;;;;;;7.63;5.45;;;;;;;-145.61;100.00;68426.72;4961549;28;20026;-84
2021/06/06 07:33:26;;;;;;;7.88;5.80;;;;;;;-145.61;100.00;68426.72;4978428;28;20027;-84
2021/06/06 07:35:53;;;;;;;6.30;5.70;;;;;;;-145.61;100.00;68426.72;4958547;28;20050;-83
2021/06/06 07:38:24;;;;;;;8.27;6.43;;;;;;;-145.61;100.00;68426.72;4975357;28;20038;-84
2021/06/06 07:40:52;;;;;;;6.28;5.65;;;;;;;-145.61;100.00;68426.72;4963917;28;20034;-84
2021/06/06 07:43:18;;;;;;;5.65;5.13;;;;;;;-145.61;100.00;68426.72;4961403;28;20030;-84
2021/06/06 07:45:44;;;;;;;6.40;5.40;;;;;;;-145.61;100.00;68426.72;4961381;28;20031;-84
2021/06/06 07:48:11;;;;;;;6.05;5.50;;;;;;;-145.61;100.00;68426.72;4961348;28;20445;-85
2021/06/06 07:50:42;;;;;;;5.70;5.20;;;;;;;-145.61;100.00;68426.72;4978570;28;20026;-85
2021/06/06 07:53:08;;;;;;;5.78;5.18;;;;;;;-145.61;100.00;68426.72;4961306;28;20019;-85
2021/06/06 07:55:34;;;;;;;6.68;5.80;;;;;;;-145.61;100.00;68426.72;4961330;28;20089;-84
2021/06/06 07:58:00;;;;;;;6.03;5.43;;;;;;;-145.61;100.00;68426.72;4960789;28;20036;-84
2021/06/06 08:00:38;;;;;;;7.45;5.50;;;;;;;-145.61;100.00;68426.72;4961089;28;20026;-84
2021/06/06 08:03:05;;;;;;;11.85;9.68;;;;;;;-145.61;100.00;68426.72;4978221;28;20031;-83
2021/06/06 08:05:31;;;;;;;7.68;6.38;;;;;;;-145.61;100.00;68426.72;4961107;28;20045;-85
2021/06/06 08:07:56;;;;;;;8.30;6.05;;;;;;;-145.61;100.00;68426.72;4960899;28;20019;-85
2021/06/06 08:10:25;;;;;;;7.93;6.00;;;;;;;-145.61;100.00;68426.72;4962762;28;20451;-83
2021/06/06 08:12:51;;;;;;;6.05;5.45;;;;;;;-145.61;100.00;68426.72;4960443;28;20415;-84
2021/06/06 08:15:18;;;;;;;6.28;5.68;;;;;;;-145.61;100.00;68426.72;4973031;28;20031;-84
2021/06/06 08:17:44;;;;;;;10.23;5.85;;;;;;;-145.61;100.00;68426.72;4960728;28;20077;-84
2021/06/06 08:20:17;;;;;;;5.97;5.45;;;;;;;-145.61;100.00;68426.72;4977841;28;20027;-84
2021/06/06 08:22:43;;;;;;;6.15;5.55;;;;;;;-145.61;100.00;68426.72;4960862;28;20331;-84
2021/06/06 08:25:11;;;;;;;7.20;6.15;;;;;;;-145.61;100.00;68426.72;4952424;28;20022;-84
2021/06/06 08:27:39;;;;;;;7.50;6.60;;;;;;;-145.61;100.00;68426.72;4952288;28;20037;-84
2021/06/06 08:30:14;;;;;;;6.85;5.40;;;;;;;-145.61;100.00;68426.72;4960869;28;20037;-85
2021/06/06 08:32:47;;;;;;;6.10;5.50;;;;;;;-145.61;100.00;68426.72;4981537;28;20050;-85
2021/06/06 08:35:13;;;;;;;6.28;5.68;;;;;;;-145.61;100.00;68426.72;4952950;28;20031;-85
2021/06/06 08:37:39;;;;;;;9.13;5.95;;;;;;;-145.61;100.00;68426.72;4959976;28;20040;-85
2021/06/06 08:40:09;;;;;;;32.65;8.02;;;;;;;-145.61;100.00;68426.72;4984745;28;20023;-85
2021/06/06 08:42:39;;;;;;;13.18;5.93;;;;;;;-145.61;100.00;68426.72;4964675;28;20046;-85
2021/06/06 08:45:30;;;;;;;22.05;7.13;;;;;;;-145.61;100.00;68426.72;4963444;28;20026;-85
2021/06/06 08:47:58;;;;;;;22.25;6.90;;;;;;;-145.61;100.00;68426.72;4964519;28;20383;-85
2021/06/06 08:50:30;;;;;;;5.65;5.15;;;;;;;-145.61;100.00;68426.72;4964685;28;20029;-85
2021/06/06 08:53:28;;;;;;;5.70;5.20;;;;;;;14.16;84.43;96413.53;4972507;28;20033;-85
2021/06/06 08:56:05;;;;;;;5.32;4.70;;;;;;;14.16;84.43;96413.53;4977524;28;20026;-86
2021/06/06 08:58:59;;;;;;;5.22;4.72;;;;;;;18.36;65.84;96427.84;4961864;28;20045;-84
2021/06/06 09:01:53;;;;;;;6.43;5.30;;;;;;;18.28;63.24;96424.16;4981350;28;21562;-86
2021/06/06 09:04:21;;;;;;;5.22;4.78;;;;;;;18.08;63.05;96403.25;4983354;28;20059;-85
2021/06/06 09:06:48;;;;;;;5.68;5.10;;;;;;;18.17;63.88;96422.22;4974237;28;20494;-86
2021/06/06 09:09:15;;;;;;;5.45;4.60;;;;;;;18.28;63.82;96402.91;4966953;28;20320;-87
2021/06/06 09:11:42;;;;;;;5.03;4.53;;;;;;;18.47;62.09;96425.03;4972470;28;20031;-88
2021/06/06 09:14:08;;;;;;;5.63;4.80;;;;;;;18.66;63.12;96418.94;4994682;28;20105;-86
2021/06/06 09:16:55;;;;;;;4.53;4.13;;;;;;;18.86;60.82;96426.09;4981753;28;20510;-84
2021/06/06 09:19:23;;;;;;;4.18;3.78;;;;;;;18.67;58.70;96388.16;4961390;28;20030;-86
2021/06/06 09:22:02;;;;;;;4.72;4.10;;;;;;;19.13;61.30;96411.38;4963774;28;20323;-85
2021/06/06 09:24:37;;;;;;;7.07;5.00;;;;;;;19.28;59.38;96419.22;4966401;28;20037;-86
2021/06/06 09:27:15;;;;;;;6.88;6.10;;;;;;;19.45;59.33;96417.09;4958548;28;20034;-86
2021/06/06 09:29:41;;;;;;;8.18;6.57;;;;;;;19.32;56.84;96405.94;4984896;28;20026;-85
2021/06/06 09:32:21;;;;;;;5.15;4.65;;;;;;;19.11;57.33;96365.06;4971810;28;20034;-86
2021/06/06 09:35:18;;;;;;;8.38;5.10;;;;;;;19.28;56.88;96369.69;4955950;28;20025;-86
2021/06/06 09:37:49;;;;;;;6.03;4.43;;;;;;;19.51;57.80;96361.94;4947694;28;20056;-86
2021/06/06 09:40:30;;;;;;;5.57;4.55;;;;;;;19.98;56.19;96397.53;4980985;28;20073;-87
2021/06/06 09:42:56;;;;;;;4.95;4.10;;;;;;;19.70;55.08;96337.97;4952009;28;20034;-88
2021/06/06 09:45:25;;;;;;;4.63;4.10;;;;;;;20.31;57.58;96390.81;4955509;28;20042;-89
2021/06/06 09:48:00;;;;;;;7.60;4.28;;;;;;;20.61;57.43;96401.69;4964205;28;20382;-89
2021/06/06 09:50:31;;;;;;;5.38;4.35;;;;;;;20.44;59.56;96360.53;4963941;28;20041;-90
2021/06/06 09:52:57;;;;;;;5.10;4.38;;;;;;;20.53;56.34;96368.47;4956523;28;20027;-89
2021/06/06 09:55:22;;;;;;;5.25;4.38;;;;;;;20.68;54.56;96395.59;4956334;28;20085;-91
2021/06/06 09:57:50;;;;;;;6.15;4.53;;;;;;;20.32;52.74;96357.22;4971352;28;20105;-90
2021/06/06 10:00:18;;;;;;;4.53;4.03;;;;;;;20.74;54.84;96396.25;4957445;29;20031;-90
2021/06/06 10:02:54;;;;;;;8.10;5.13;;;;;;;20.69;55.59;96341.91;4978639;28;20027;-89
2021/06/06 10:05:31;;;;;;;5.95;3.97;;;;;;;21.02;54.48;96361.94;4963765;28;20037;-90
2021/06/06 10:08:07;;;;;;;5.50;4.20;;;;;;;21.12;52.54;96352.00;4963824;28;20121;-89
2021/06/06 10:10:38;;;;;;;3.95;3.63;;;;;;;21.59;53.80;96379.78;4963825;28;20042;-89
2021/06/06 10:13:13;;;;;;;7.13;4.15;;;;;;;21.37;54.04;96330.50;4963870;28;20030;-89
2021/06/06 10:15:56;;;;;;;7.20;4.15;;;;;;;21.98;55.59;96381.78;4962808;28;20304;-89
2021/06/06 10:18:32;;;;;;;6.32;4.68;;;;;;;21.71;51.66;96336.09;4961167;28;20415;-89
2021/06/06 10:21:19;;;;;;;7.40;4.30;;;;;;;21.80;53.56;96308.03;4961804;28;20038;-89
2021/06/06 10:23:51;;;;;;;6.97;4.32;;;;;;;22.31;52.14;96374.09;4963555;28;20023;-88
2021/06/06 10:26:57;;;;;;;5.95;4.13;;;;;;;22.34;51.03;96366.75;4963313;28;20422;-89
2021/06/06 10:29:38;;;;;;;12.25;4.70;;;;;;;22.51;51.47;96372.66;4930968;28;20109;-88
2021/06/06 10:32:10;;;;;;;4.85;4.32;;;;;;;22.53;49.55;96374.88;4962963;28;20326;-89
2021/06/06 10:34:44;;;;;;;12.85;4.60;;;;;;;22.85;54.48;96367.09;4980003;28;20030;-89
2021/06/06 10:37:13;;;;;;;4.63;4.22;;;;;;;22.62;49.17;96349.50;4961196;28;20110;-89
2021/06/06 10:39:53;;;;;;;45.58;42.10;;;;;;;23.18;54.94;96367.56;4962969;28;20370;-89
2021/06/06 10:42:31;;;;;;;15.05;12.63;;;;;;;23.48;52.69;96364.25;4971017;28;20022;-88
2021/06/06 10:44:59;;;;;;;12.18;11.05;;;;;;;23.59;48.99;96361.19;4983123;28;20026;-91
2021/06/06 10:47:30;;;;;;;3.75;3.40;;;;;;;23.09;43.79;96323.75;4973872;28;20026;-90
2021/06/06 10:50:10;;;;;;;76.18;10.68;;;;;;;23.48;50.47;96326.22;4980296;28;20437;-91
2021/06/06 10:52:38;;;;;;;7.53;4.50;;;;;;;23.74;46.01;96314.19;4981953;28;20359;-91
2021/06/06 10:55:27;;;;;;;17.75;15.35;;;;;;;24.16;53.03;96352.81;4982197;28;20501;-91
2021/06/06 10:57:53;;;;;;;9.33;8.03;;;;;;;24.38;49.43;96361.78;4997210;28;20081;-91
2021/06/06 11:00:33;;;;;;;6.60;5.97;;;;;;;24.52;50.74;96350.00;4962567;28;20035;-91
2021/06/06 11:03:03;;;;;;;5.88;5.03;;;;;;;24.35;43.86;96301.84;4960117;28;20081;-90
2021/06/06 11:05:52;;;;;;;10.32;8.88;;;;;;;24.75;43.58;96346.50;4961981;28;20471;-90
2021/06/06 11:08:26;;;;;;;21.77;13.75;;;;;;;24.87;43.59;96344.13;4986506;28;20097;-90
2021/06/06 11:10:53;;;;;;;23.25;15.77;;;;;;;24.90;52.53;96354.88;4972547;28;20041;-95
2021/06/06 11:13:54;;;;;;;18.30;11.25;;;;;;;24.94;48.43;96344.13;4962330;28;20307;-91
2021/06/06 11:16:29;;;;;;;21.27;9.23;;;;;;;24.80;47.27;96290.06;4975044;28;20041;-91
2021/06/06 11:18:57;;;;;;;17.52;7.70;;;;;;;25.26;42.76;96337.31;4967818;28;20029;-94
2021/06/06 11:21:51;;;;;;;5.07;3.17;;;;;;;25.36;38.94;96327.09;4966815;28;20026;-91
2021/06/06 11:24:23;;;;;;;7.72;3.97;;;;;;;25.28;41.08;96270.78;4960732;28;20308;-87
2021/06/06 11:27:18;;;;;;;9.65;6.55;;;;;;;25.50;44.36;96316.50;4958264;28;20033;-87
2021/06/06 11:30:08;;;;;;;8.10;3.72;;;;;;;25.71;37.36;96330.16;4961319;28;20053;-86
2021/06/06 11:33:00;;;;;;;10.95;5.95;;;;;;;25.98;41.33;96316.56;4960781;28;20174;-87
2021/06/06 11:35:34;;;;;;;15.02;6.63;;;;;;;26.06;43.74;96318.03;4965613;28;20064;-86
2021/06/06 11:38:16;;;;;;;10.18;5.32;;;;;;;26.16;44.22;96314.66;4958644;28;20062;-87